sensor_id;sensor_type;location;lat;lon;timestamp;pressure;altitude;pressure_sealevel;temperature;humidity
49657;BME280;71194;38.900;-77.124;2023-11-19T00:01:02;99949.90;;;13.15;27.20
49657;BME280;71194;38.900;-77.124;2023-11-19T00:03:29;99951.54;;;12.86;27.44
49657;BME280;71194;38.900;-77.124;2023-11-19T00:05:57;99954.55;;;13.39;27.22
49657;BME280;71194;38.900;-77.124;2023-11-19T00:08:24;99956.90;;;13.74;26.84
49657;BME280;71194;38.900;-77.124;2023-11-19T00:10:52;99950.56;;;14.19;26.71
49657;BME280;71194;38.900;-77.124;2023-11-19T00:13:20;99950.00;;;13.95;26.62
49657;BME280;71194;38.900;-77.124;2023-11-19T00:15:48;99952.51;;;14.09;26.63
49657;BME280;71194;38.900;-77.124;2023-11-19T00:18:16;99960.39;;;13.73;26.57
49657;BME280;71194;38.900;-77.124;2023-11-19T00:20:44;99959.04;;;13.94;26.57
49657;BME280;71194;38.900;-77.124;2023-11-19T00:23:12;99963.49;;;13.43;26.79
49657;BME280;71194;38.900;-77.124;2023-11-19T00:25:40;99960.59;;;13.44;26.79
49657;BME280;71194;38.900;-77.124;2023-11-19T00:28:08;99957.81;;;13.97;26.63
49657;BME280;71194;38.900;-77.124;2023-11-19T00:30:35;99960.95;;;13.59;26.90
49657;BME280;71194;38.900;-77.124;2023-11-19T00:33:03;99961.54;;;13.52;26.92
49657;BME280;71194;38.900;-77.124;2023-11-19T00:35:32;99960.84;;;13.68;26.80
49657;BME280;71194;38.900;-77.124;2023-11-19T00:37:59;99955.56;;;13.41;26.82
49657;BME280;71194;38.900;-77.124;2023-11-19T00:40:27;99957.82;;;13.41;27.05
49657;BME280;71194;38.900;-77.124;2023-11-19T00:42:55;99953.00;;;13.54;26.90
49657;BME280;71194;38.900;-77.124;2023-11-19T00:45:23;99956.25;;;13.43;27.07
49657;BME280;71194;38.900;-77.124;2023-11-19T00:47:51;99955.09;;;13.20;27.29
49657;BME280;71194;38.900;-77.124;2023-11-19T00:50:19;99957.92;;;13.19;27.22
49657;BME280;71194;38.900;-77.124;2023-11-19T00:52:47;99960.15;;;13.48;27.05
49657;BME280;71194;38.900;-77.124;2023-11-19T00:55:15;99959.70;;;13.51;27.10
49657;BME280;71194;38.900;-77.124;2023-11-19T00:57:43;99966.79;;;12.94;27.30
49657;BME280;71194;38.900;-77.124;2023-11-19T01:00:12;99966.89;;;13.21;27.27
49657;BME280;71194;38.900;-77.124;2023-11-19T01:02:40;99968.73;;;13.51;27.08
49657;BME280;71194;38.900;-77.124;2023-11-19T01:05:09;99971.07;;;12.88;27.77
49657;BME280;71194;38.900;-77.124;2023-11-19T01:07:36;99971.31;;;13.18;27.43
49657;BME280;71194;38.900;-77.124;2023-11-19T01:10:05;99970.43;;;12.84;27.78
49657;BME280;71194;38.900;-77.124;2023-11-19T01:12:33;99973.87;;;12.93;27.75
49657;BME280;71194;38.900;-77.124;2023-11-19T01:15:00;99978.26;;;13.05;27.64
49657;BME280;71194;38.900;-77.124;2023-11-19T01:17:28;99976.28;;;13.12;27.61
49657;BME280;71194;38.900;-77.124;2023-11-19T01:19:56;99977.56;;;12.61;28.05
49657;BME280;71194;38.900;-77.124;2023-11-19T01:22:24;99970.30;;;13.02;27.75
49657;BME280;71194;38.900;-77.124;2023-11-19T01:24:52;99962.16;;;12.90;27.84
49657;BME280;71194;38.900;-77.124;2023-11-19T01:27:20;99960.63;;;12.94;27.98
49657;BME280;71194;38.900;-77.124;2023-11-19T01:29:48;99954.05;;;12.10;28.41
49657;BME280;71194;38.900;-77.124;2023-11-19T01:32:16;99957.35;;;12.12;28.14
49657;BME280;71194;38.900;-77.124;2023-11-19T01:34:44;99955.58;;;12.16;28.35
49657;BME280;71194;38.900;-77.124;2023-11-19T01:37:12;99964.50;;;13.02;27.87
49657;BME280;71194;38.900;-77.124;2023-11-19T01:39:40;99963.00;;;12.30;28.01
49657;BME280;71194;38.900;-77.124;2023-11-19T01:42:11;99971.22;;;12.35;28.45
49657;BME280;71194;38.900;-77.124;2023-11-19T01:44:38;99973.16;;;12.01;28.29
49657;BME280;71194;38.900;-77.124;2023-11-19T01:47:07;99980.39;;;12.96;28.08
49657;BME280;71194;38.900;-77.124;2023-11-19T01:49:35;99982.50;;;12.52;28.27
49657;BME280;71194;38.900;-77.124;2023-11-19T01:52:04;99982.81;;;12.56;28.06
49657;BME280;71194;38.900;-77.124;2023-11-19T01:54:32;99985.87;;;13.06;27.89
49657;BME280;71194;38.900;-77.124;2023-11-19T01:57:00;99986.65;;;11.93;28.45
49657;BME280;71194;38.900;-77.124;2023-11-19T01:59:28;99987.45;;;12.11;28.63
49657;BME280;71194;38.900;-77.124;2023-11-19T02:01:56;99989.29;;;12.05;28.82
49657;BME280;71194;38.900;-77.124;2023-11-19T02:04:24;99986.50;;;12.11;28.45
49657;BME280;71194;38.900;-77.124;2023-11-19T02:06:56;99991.81;;;12.77;28.15
49657;BME280;71194;38.900;-77.124;2023-11-19T02:09:25;99994.01;;;12.15;28.40
49657;BME280;71194;38.900;-77.124;2023-11-19T02:11:53;99992.14;;;12.95;28.18
49657;BME280;71194;38.900;-77.124;2023-11-19T02:14:24;99993.58;;;12.49;28.07
49657;BME280;71194;38.900;-77.124;2023-11-19T02:16:52;100000.29;;;12.60;28.37
49657;BME280;71194;38.900;-77.124;2023-11-19T02:19:20;100002.68;;;12.51;28.28
49657;BME280;71194;38.900;-77.124;2023-11-19T02:21:48;100006.75;;;13.02;28.05
49657;BME280;71194;38.900;-77.124;2023-11-19T02:24:20;100014.91;;;12.03;28.48
49657;BME280;71194;38.900;-77.124;2023-11-19T02:26:55;100016.67;;;12.67;28.13
49657;BME280;71194;38.900;-77.124;2023-11-19T02:29:26;100020.71;;;12.71;28.37
49657;BME280;71194;38.900;-77.124;2023-11-19T02:31:53;100023.00;;;11.92;28.97
49657;BME280;71194;38.900;-77.124;2023-11-19T02:34:21;100027.85;;;12.23;28.85
49657;BME280;71194;38.900;-77.124;2023-11-19T02:36:50;100034.94;;;12.65;28.50
49657;BME280;71194;38.900;-77.124;2023-11-19T02:39:18;100043.62;;;12.13;28.70
49657;BME280;71194;38.900;-77.124;2023-11-19T02:41:46;100046.07;;;12.71;28.45
49657;BME280;71194;38.900;-77.124;2023-11-19T02:44:14;100044.93;;;12.72;28.29
49657;BME280;71194;38.900;-77.124;2023-11-19T02:46:42;100036.43;;;12.45;28.33
49657;BME280;71194;38.900;-77.124;2023-11-19T02:49:10;100029.94;;;12.36;28.61
49657;BME280;71194;38.900;-77.124;2023-11-19T02:51:38;100023.66;;;11.98;28.89
49657;BME280;71194;38.900;-77.124;2023-11-19T02:54:06;100019.85;;;12.01;29.12
49657;BME280;71194;38.900;-77.124;2023-11-19T02:56:35;100023.20;;;12.52;28.94
49657;BME280;71194;38.900;-77.124;2023-11-19T02:59:02;100025.49;;;12.33;28.96
49657;BME280;71194;38.900;-77.124;2023-11-19T03:01:30;100024.67;;;11.99;29.47
49657;BME280;71194;38.900;-77.124;2023-11-19T03:03:59;100018.61;;;11.73;29.75
49657;BME280;71194;38.900;-77.124;2023-11-19T03:06:28;100015.51;;;11.52;29.95
49657;BME280;71194;38.900;-77.124;2023-11-19T03:08:56;100021.15;;;11.46;30.06
49657;BME280;71194;38.900;-77.124;2023-11-19T03:11:24;100029.10;;;11.59;30.09
49657;BME280;71194;38.900;-77.124;2023-11-19T03:13:51;100026.21;;;11.98;29.74
49657;BME280;71194;38.900;-77.124;2023-11-19T03:16:19;100021.59;;;12.01;29.80
49657;BME280;71194;38.900;-77.124;2023-11-19T03:18:48;100021.47;;;12.26;29.55
49657;BME280;71194;38.900;-77.124;2023-11-19T03:21:16;100023.13;;;11.87;29.96
49657;BME280;71194;38.900;-77.124;2023-11-19T03:23:44;100024.99;;;11.95;29.71
49657;BME280;71194;38.900;-77.124;2023-11-19T03:26:12;100019.78;;;12.14;29.74
49657;BME280;71194;38.900;-77.124;2023-11-19T03:28:40;100026.96;;;12.01;29.88
49657;BME280;71194;38.900;-77.124;2023-11-19T03:31:08;100030.63;;;11.86;30.08
49657;BME280;71194;38.900;-77.124;2023-11-19T03:33:36;100035.76;;;12.04;29.86
49657;BME280;71194;38.900;-77.124;2023-11-19T03:36:05;100030.64;;;12.21;29.72
49657;BME280;71194;38.900;-77.124;2023-11-19T03:38:33;100034.12;;;11.96;30.05
49657;BME280;71194;38.900;-77.124;2023-11-19T03:41:01;100029.95;;;12.09;29.91
49657;BME280;71194;38.900;-77.124;2023-11-19T03:43:31;100031.46;;;12.07;29.99
49657;BME280;71194;38.900;-77.124;2023-11-19T03:45:59;100035.86;;;11.84;30.21
49657;BME280;71194;38.900;-77.124;2023-11-19T03:48:27;100037.57;;;11.98;30.13
49657;BME280;71194;38.900;-77.124;2023-11-19T03:50:55;100039.52;;;11.91;30.13
49657;BME280;71194;38.900;-77.124;2023-11-19T03:53:23;100032.95;;;11.52;30.63
49657;BME280;71194;38.900;-77.124;2023-11-19T03:55:51;100025.25;;;12.03;30.40
49657;BME280;71194;38.900;-77.124;2023-11-19T03:58:20;100020.98;;;11.64;30.76
49657;BME280;71194;38.900;-77.124;2023-11-19T04:00:48;100013.81;;;11.32;30.94
49657;BME280;71194;38.900;-77.124;2023-11-19T04:03:16;100008.28;;;11.36;30.89
49657;BME280;71194;38.900;-77.124;2023-11-19T04:05:44;100006.18;;;11.25;31.00
49657;BME280;71194;38.900;-77.124;2023-11-19T04:08:12;100012.10;;;11.42;30.86
49657;BME280;71194;38.900;-77.124;2023-11-19T04:10:40;100022.52;;;11.67;30.56
49657;BME280;71194;38.900;-77.124;2023-11-19T04:13:08;100023.85;;;11.73;30.45
49657;BME280;71194;38.900;-77.124;2023-11-19T04:15:36;100028.96;;;11.98;30.45
49657;BME280;71194;38.900;-77.124;2023-11-19T04:18:04;100036.06;;;11.88;30.36
49657;BME280;71194;38.900;-77.124;2023-11-19T04:20:32;100038.68;;;11.84;30.43
49657;BME280;71194;38.900;-77.124;2023-11-19T04:23:01;100041.35;;;11.94;30.34
49657;BME280;71194;38.900;-77.124;2023-11-19T04:25:28;100041.83;;;11.90;30.41
49657;BME280;71194;38.900;-77.124;2023-11-19T04:27:56;100044.60;;;11.91;30.41
49657;BME280;71194;38.900;-77.124;2023-11-19T04:30:25;100046.61;;;11.87;30.47
49657;BME280;71194;38.900;-77.124;2023-11-19T04:32:53;100050.96;;;12.40;30.43
49657;BME280;71194;38.900;-77.124;2023-11-19T04:35:21;100050.92;;;11.92;30.44
49657;BME280;71194;38.900;-77.124;2023-11-19T04:37:49;100056.04;;;11.99;30.40
49657;BME280;71194;38.900;-77.124;2023-11-19T04:40:17;100058.91;;;11.99;30.41
49657;BME280;71194;38.900;-77.124;2023-11-19T04:42:45;100061.90;;;11.96;30.52
49657;BME280;71194;38.900;-77.124;2023-11-19T04:45:13;100063.67;;;11.72;30.52
49657;BME280;71194;38.900;-77.124;2023-11-19T04:47:41;100062.92;;;11.66;30.78
49657;BME280;71194;38.900;-77.124;2023-11-19T04:50:10;100065.27;;;11.80;30.71
49657;BME280;71194;38.900;-77.124;2023-11-19T04:52:38;100067.65;;;12.08;30.66
49657;BME280;71194;38.900;-77.124;2023-11-19T04:55:06;100071.05;;;12.06;30.74
49657;BME280;71194;38.900;-77.124;2023-11-19T04:57:34;100072.52;;;12.05;30.74
49657;BME280;71194;38.900;-77.124;2023-11-19T05:00:08;100071.57;;;11.76;30.81
49657;BME280;71194;38.900;-77.124;2023-11-19T05:02:36;100074.98;;;11.85;30.72
49657;BME280;71194;38.900;-77.124;2023-11-19T05:05:04;100075.02;;;12.01;30.77
49657;BME280;71194;38.900;-77.124;2023-11-19T05:07:32;100077.83;;;11.73;30.87
49657;BME280;71194;38.900;-77.124;2023-11-19T05:10:00;100079.57;;;11.63;30.97
49657;BME280;71194;38.900;-77.124;2023-11-19T05:12:28;100083.48;;;11.60;31.18
49657;BME280;71194;38.900;-77.124;2023-11-19T05:14:56;100086.86;;;11.63;31.17
49657;BME280;71194;38.900;-77.124;2023-11-19T05:17:24;100088.58;;;11.58;31.21
49657;BME280;71194;38.900;-77.124;2023-11-19T05:19:53;100092.66;;;11.37;31.43
49657;BME280;71194;38.900;-77.124;2023-11-19T05:22:20;100098.16;;;11.44;31.42
49657;BME280;71194;38.900;-77.124;2023-11-19T05:24:48;100100.96;;;11.42;31.44
49657;BME280;71194;38.900;-77.124;2023-11-19T05:27:17;100102.76;;;11.39;31.52
49657;BME280;71194;38.900;-77.124;2023-11-19T05:29:45;100107.39;;;11.40;31.50
49657;BME280;71194;38.900;-77.124;2023-11-19T05:32:13;100114.76;;;11.68;31.53
49657;BME280;71194;38.900;-77.124;2023-11-19T05:34:41;100114.81;;;11.68;31.53
49657;BME280;71194;38.900;-77.124;2023-11-19T05:37:10;100116.28;;;11.66;31.56
49657;BME280;71194;38.900;-77.124;2023-11-19T05:39:38;100113.52;;;11.66;31.61
49657;BME280;71194;38.900;-77.124;2023-11-19T05:42:06;100119.34;;;11.64;31.62
49657;BME280;71194;38.900;-77.124;2023-11-19T05:44:34;100120.57;;;11.64;31.61
49657;BME280;71194;38.900;-77.124;2023-11-19T05:47:02;100124.25;;;11.17;31.61
49657;BME280;71194;38.900;-77.124;2023-11-19T05:49:30;100122.77;;;11.39;31.63
49657;BME280;71194;38.900;-77.124;2023-11-19T05:51:59;100123.28;;;11.67;31.61
49657;BME280;71194;38.900;-77.124;2023-11-19T05:54:26;100127.80;;;11.41;31.62
49657;BME280;71194;38.900;-77.124;2023-11-19T05:56:54;100124.53;;;11.69;31.62
49657;BME280;71194;38.900;-77.124;2023-11-19T05:59:23;100125.00;;;11.42;31.68
49657;BME280;71194;38.900;-77.124;2023-11-19T06:01:51;100129.22;;;11.44;31.70
49657;BME280;71194;38.900;-77.124;2023-11-19T06:04:19;100132.71;;;11.49;31.66
49657;BME280;71194;38.900;-77.124;2023-11-19T06:06:47;100131.51;;;11.45;31.61
49657;BME280;71194;38.900;-77.124;2023-11-19T06:09:15;100131.42;;;11.75;31.60
49657;BME280;71194;38.900;-77.124;2023-11-19T06:11:43;100128.79;;;11.61;31.70
49657;BME280;71194;38.900;-77.124;2023-11-19T06:14:11;100129.94;;;11.32;31.76
49657;BME280;71194;38.900;-77.124;2023-11-19T06:16:39;100130.73;;;11.58;31.83
49657;BME280;71194;38.900;-77.124;2023-11-19T06:19:07;100128.10;;;11.29;31.88
49657;BME280;71194;38.900;-77.124;2023-11-19T06:21:36;100132.72;;;11.28;31.89
49657;BME280;71194;38.900;-77.124;2023-11-19T06:24:05;100136.30;;;11.11;32.02
49657;BME280;71194;38.900;-77.124;2023-11-19T06:26:33;100136.75;;;11.16;31.97
49657;BME280;71194;38.900;-77.124;2023-11-19T06:29:01;100135.11;;;11.01;31.97
49657;BME280;71194;38.900;-77.124;2023-11-19T06:31:29;100139.77;;;11.31;31.94
49657;BME280;71194;38.900;-77.124;2023-11-19T06:33:57;100139.52;;;11.65;31.85
49657;BME280;71194;38.900;-77.124;2023-11-19T06:36:25;100142.53;;;11.41;31.85
49657;BME280;71194;38.900;-77.124;2023-11-19T06:38:53;100138.77;;;11.37;31.84
49657;BME280;71194;38.900;-77.124;2023-11-19T06:41:21;100144.07;;;11.12;31.86
49657;BME280;71194;38.900;-77.124;2023-11-19T06:43:49;100145.40;;;11.44;31.87
49657;BME280;71194;38.900;-77.124;2023-11-19T06:46:17;100147.14;;;11.53;31.80
49657;BME280;71194;38.900;-77.124;2023-11-19T06:48:45;100149.82;;;11.84;31.87
49657;BME280;71194;38.900;-77.124;2023-11-19T06:51:13;100145.31;;;11.83;31.95
49657;BME280;71194;38.900;-77.124;2023-11-19T06:53:43;100146.43;;;11.54;31.97
49657;BME280;71194;38.900;-77.124;2023-11-19T06:56:19;100149.76;;;11.82;32.01
49657;BME280;71194;38.900;-77.124;2023-11-19T06:58:46;100145.59;;;11.54;32.11
49657;BME280;71194;38.900;-77.124;2023-11-19T07:01:14;100148.78;;;11.74;32.14
49657;BME280;71194;38.900;-77.124;2023-11-19T07:03:42;100148.50;;;11.36;32.18
49657;BME280;71194;38.900;-77.124;2023-11-19T07:06:11;100145.43;;;11.32;32.18
49657;BME280;71194;38.900;-77.124;2023-11-19T07:08:38;100148.77;;;11.52;32.20
49657;BME280;71194;38.900;-77.124;2023-11-19T07:11:06;100144.78;;;11.22;32.22
49657;BME280;71194;38.900;-77.124;2023-11-19T07:13:35;100150.60;;;11.44;32.23
49657;BME280;71194;38.900;-77.124;2023-11-19T07:16:03;100154.74;;;11.11;32.24
49657;BME280;71194;38.900;-77.124;2023-11-19T07:18:31;100156.31;;;11.37;32.24
49657;BME280;71194;38.900;-77.124;2023-11-19T07:20:59;100156.25;;;11.09;32.28
49657;BME280;71194;38.900;-77.124;2023-11-19T07:23:27;100154.28;;;11.35;32.29
49657;BME280;71194;38.900;-77.124;2023-11-19T07:25:55;100155.77;;;11.35;32.28
49657;BME280;71194;38.900;-77.124;2023-11-19T07:28:23;100154.03;;;11.07;32.27
49657;BME280;71194;38.900;-77.124;2023-11-19T07:30:51;100150.45;;;11.32;32.29
49657;BME280;71194;38.900;-77.124;2023-11-19T07:33:19;100151.89;;;11.35;32.28
49657;BME280;71194;38.900;-77.124;2023-11-19T07:35:47;100152.52;;;11.34;32.27
49657;BME280;71194;38.900;-77.124;2023-11-19T07:38:15;100152.91;;;11.31;32.29
49657;BME280;71194;38.900;-77.124;2023-11-19T07:40:43;100153.63;;;11.26;32.33
49657;BME280;71194;38.900;-77.124;2023-11-19T07:43:11;100154.33;;;11.25;32.37
49657;BME280;71194;38.900;-77.124;2023-11-19T07:45:39;100158.20;;;11.25;32.40
49657;BME280;71194;38.900;-77.124;2023-11-19T07:48:08;100155.32;;;11.25;32.37
49657;BME280;71194;38.900;-77.124;2023-11-19T07:50:36;100158.94;;;11.01;32.46
49657;BME280;71194;38.900;-77.124;2023-11-19T07:53:04;100158.59;;;10.77;32.49
49657;BME280;71194;38.900;-77.124;2023-11-19T07:55:32;100158.94;;;11.15;32.44
49657;BME280;71194;38.900;-77.124;2023-11-19T07:58:00;100155.24;;;11.16;32.44
49657;BME280;71194;38.900;-77.124;2023-11-19T08:00:28;100153.07;;;11.25;32.40
49657;BME280;71194;38.900;-77.124;2023-11-19T08:02:56;100153.07;;;11.31;32.35
49657;BME280;71194;38.900;-77.124;2023-11-19T08:05:24;100153.60;;;11.05;32.40
49657;BME280;71194;38.900;-77.124;2023-11-19T08:07:52;100153.70;;;11.32;32.39
49657;BME280;71194;38.900;-77.124;2023-11-19T08:10:20;100157.36;;;11.07;32.49
49657;BME280;71194;38.900;-77.124;2023-11-19T08:12:48;100156.87;;;11.41;32.53
49657;BME280;71194;38.900;-77.124;2023-11-19T08:15:16;100154.87;;;11.18;32.60
49657;BME280;71194;38.900;-77.124;2023-11-19T08:17:45;100152.59;;;11.44;32.82
49657;BME280;71194;38.900;-77.124;2023-11-19T08:20:13;100148.86;;;11.38;33.07
49657;BME280;71194;38.900;-77.124;2023-11-19T08:22:41;100149.46;;;11.37;33.24
49657;BME280;71194;38.900;-77.124;2023-11-19T08:25:10;100147.15;;;11.30;33.18
49657;BME280;71194;38.900;-77.124;2023-11-19T08:27:38;100149.00;;;10.97;33.28
49657;BME280;71194;38.900;-77.124;2023-11-19T08:30:06;100145.37;;;11.23;33.18
49657;BME280;71194;38.900;-77.124;2023-11-19T08:32:35;100146.47;;;11.22;33.23
49657;BME280;71194;38.900;-77.124;2023-11-19T08:35:03;100148.59;;;11.23;33.23
49657;BME280;71194;38.900;-77.124;2023-11-19T08:37:32;100148.53;;;11.17;33.24
49657;BME280;71194;38.900;-77.124;2023-11-19T08:40:00;100149.13;;;11.10;33.20
49657;BME280;71194;38.900;-77.124;2023-11-19T08:42:28;100145.35;;;10.79;33.17
49657;BME280;71194;38.900;-77.124;2023-11-19T08:44:56;100142.95;;;11.00;33.15
49657;BME280;71194;38.900;-77.124;2023-11-19T08:47:24;100141.10;;;10.92;33.21
49657;BME280;71194;38.900;-77.124;2023-11-19T08:49:52;100143.10;;;10.92;33.29
49657;BME280;71194;38.900;-77.124;2023-11-19T08:52:20;100139.91;;;10.90;33.30
49657;BME280;71194;38.900;-77.124;2023-11-19T08:54:48;100139.30;;;10.88;33.37
49657;BME280;71194;38.900;-77.124;2023-11-19T08:57:16;100135.37;;;10.83;33.45
49657;BME280;71194;38.900;-77.124;2023-11-19T08:59:45;100137.25;;;10.80;33.57
49657;BME280;71194;38.900;-77.124;2023-11-19T09:02:12;100136.35;;;10.76;33.76
49657;BME280;71194;38.900;-77.124;2023-11-19T09:04:41;100139.63;;;10.67;33.86
49657;BME280;71194;38.900;-77.124;2023-11-19T09:07:09;100139.97;;;10.84;33.79
49657;BME280;71194;38.900;-77.124;2023-11-19T09:09:37;100140.49;;;10.54;33.78
49657;BME280;71194;38.900;-77.124;2023-11-19T09:12:05;100142.54;;;10.49;34.07
49657;BME280;71194;38.900;-77.124;2023-11-19T09:14:33;100141.55;;;10.44;34.26
49657;BME280;71194;38.900;-77.124;2023-11-19T09:17:01;100141.15;;;10.40;34.62
49657;BME280;71194;38.900;-77.124;2023-11-19T09:19:33;100144.98;;;10.35;34.90
49657;BME280;71194;38.900;-77.124;2023-11-19T09:22:00;100148.38;;;10.27;35.07
49657;BME280;71194;38.900;-77.124;2023-11-19T09:24:28;100147.47;;;10.70;35.21
49657;BME280;71194;38.900;-77.124;2023-11-19T09:26:56;100151.07;;;10.63;35.29
49657;BME280;71194;38.900;-77.124;2023-11-19T09:29:24;100148.66;;;10.10;35.31
49657;BME280;71194;38.900;-77.124;2023-11-19T09:31:53;100147.81;;;10.03;35.25
49657;BME280;71194;38.900;-77.124;2023-11-19T09:34:21;100147.17;;;10.41;35.31
49657;BME280;71194;38.900;-77.124;2023-11-19T09:36:49;100148.47;;;10.31;35.46
49657;BME280;71194;38.900;-77.124;2023-11-19T09:39:17;100154.97;;;10.25;35.63
49657;BME280;71194;38.900;-77.124;2023-11-19T09:41:45;100156.28;;;9.78;35.65
49657;BME280;71194;38.900;-77.124;2023-11-19T09:44:13;100158.23;;;10.27;35.71
49657;BME280;71194;38.900;-77.124;2023-11-19T09:46:41;100159.94;;;10.30;35.29
49657;BME280;71194;38.900;-77.124;2023-11-19T09:49:10;100159.54;;;10.32;34.89
49657;BME280;71194;38.900;-77.124;2023-11-19T09:51:39;100161.19;;;10.36;34.57
49657;BME280;71194;38.900;-77.124;2023-11-19T09:54:07;100161.52;;;10.48;34.48
49657;BME280;71194;38.900;-77.124;2023-11-19T09:56:36;100163.73;;;10.36;34.31
49657;BME280;71194;38.900;-77.124;2023-11-19T09:59:05;100170.25;;;10.48;34.30
49657;BME280;71194;38.900;-77.124;2023-11-19T10:01:34;100171.75;;;10.34;34.20
49657;BME280;71194;38.900;-77.124;2023-11-19T10:04:02;100174.78;;;10.84;34.28
49657;BME280;71194;38.900;-77.124;2023-11-19T10:06:30;100176.59;;;10.33;34.26
49657;BME280;71194;38.900;-77.124;2023-11-19T10:08:59;100176.96;;;10.29;34.32
49657;BME280;71194;38.900;-77.124;2023-11-19T10:11:27;100182.79;;;10.47;34.35
49657;BME280;71194;38.900;-77.124;2023-11-19T10:13:55;100183.51;;;10.72;34.32
49657;BME280;71194;38.900;-77.124;2023-11-19T10:16:29;100184.37;;;10.17;34.46
49657;BME280;71194;38.900;-77.124;2023-11-19T10:18:57;100189.55;;;10.61;34.53
49657;BME280;71194;38.900;-77.124;2023-11-19T10:21:25;100186.93;;;10.26;34.62
49657;BME280;71194;38.900;-77.124;2023-11-19T10:23:54;100192.23;;;10.19;34.70
49657;BME280;71194;38.900;-77.124;2023-11-19T10:26:22;100194.06;;;10.19;34.78
49657;BME280;71194;38.900;-77.124;2023-11-19T10:28:50;100199.93;;;10.47;34.91
49657;BME280;71194;38.900;-77.124;2023-11-19T10:31:19;100198.66;;;10.09;34.81
49657;BME280;71194;38.900;-77.124;2023-11-19T10:33:48;100196.56;;;10.38;34.63
49657;BME280;71194;38.900;-77.124;2023-11-19T10:36:16;100196.71;;;10.46;34.46
49657;BME280;71194;38.900;-77.124;2023-11-19T10:38:52;100193.41;;;10.75;34.33
49657;BME280;71194;38.900;-77.124;2023-11-19T10:41:29;100191.95;;;10.30;34.21
49657;BME280;71194;38.900;-77.124;2023-11-19T10:43:57;100193.54;;;10.29;34.06
49657;BME280;71194;38.900;-77.124;2023-11-19T10:46:37;100189.84;;;10.34;33.96
49657;BME280;71194;38.900;-77.124;2023-11-19T10:49:05;100195.41;;;10.33;33.96
49657;BME280;71194;38.900;-77.124;2023-11-19T10:51:33;100194.55;;;10.86;33.85
49657;BME280;71194;38.900;-77.124;2023-11-19T10:54:03;100197.14;;;10.34;33.84
49657;BME280;71194;38.900;-77.124;2023-11-19T10:56:32;100196.08;;;10.60;33.79
49657;BME280;71194;38.900;-77.124;2023-11-19T10:59:01;100196.50;;;10.39;33.77
49657;BME280;71194;38.900;-77.124;2023-11-19T11:01:34;100196.10;;;10.72;33.71
49657;BME280;71194;38.900;-77.124;2023-11-19T11:04:06;100196.75;;;10.82;33.69
49657;BME280;71194;38.900;-77.124;2023-11-19T11:06:39;100195.97;;;10.67;33.65
49657;BME280;71194;38.900;-77.124;2023-11-19T11:09:07;100192.58;;;10.69;33.81
49657;BME280;71194;38.900;-77.124;2023-11-19T11:11:36;100192.42;;;10.64;33.97
49657;BME280;71194;38.900;-77.124;2023-11-19T11:14:05;100192.42;;;10.64;34.08
49657;BME280;71194;38.900;-77.124;2023-11-19T11:16:34;100193.71;;;10.86;34.19
49657;BME280;71194;38.900;-77.124;2023-11-19T11:19:05;100195.39;;;10.33;34.37
49657;BME280;71194;38.900;-77.124;2023-11-19T11:21:33;100195.97;;;10.70;34.67
49657;BME280;71194;38.900;-77.124;2023-11-19T11:24:19;100194.89;;;10.39;34.93
49657;BME280;71194;38.900;-77.124;2023-11-19T11:27:15;100197.05;;;10.84;35.08
49657;BME280;71194;38.900;-77.124;2023-11-19T11:29:56;100198.79;;;10.74;35.29
49657;BME280;71194;38.900;-77.124;2023-11-19T11:32:34;100198.00;;;10.66;35.44
49657;BME280;71194;38.900;-77.124;2023-11-19T11:35:21;100205.51;;;10.57;35.71
49657;BME280;71194;38.900;-77.124;2023-11-19T11:38:00;100211.89;;;10.52;36.02
49657;BME280;71194;38.900;-77.124;2023-11-19T11:40:28;100216.34;;;10.42;36.23
49657;BME280;71194;38.900;-77.124;2023-11-19T11:42:57;100219.99;;;10.29;36.39
49657;BME280;71194;38.900;-77.124;2023-11-19T11:45:36;100221.59;;;10.22;36.61
49657;BME280;71194;38.900;-77.124;2023-11-19T11:48:22;100225.18;;;9.89;36.74
49657;BME280;71194;38.900;-77.124;2023-11-19T11:50:53;100229.35;;;10.15;36.74
49657;BME280;71194;38.900;-77.124;2023-11-19T11:53:22;100232.44;;;10.10;36.87
49657;BME280;71194;38.900;-77.124;2023-11-19T11:55:55;100233.26;;;9.97;36.97
49657;BME280;71194;38.900;-77.124;2023-11-19T11:58:28;100236.74;;;9.68;37.09
49657;BME280;71194;38.900;-77.124;2023-11-19T12:00:58;100239.61;;;9.97;37.04
49657;BME280;71194;38.900;-77.124;2023-11-19T12:03:28;100243.46;;;9.96;37.07
49657;BME280;71194;38.900;-77.124;2023-11-19T12:05:56;100247.39;;;9.95;37.12
49657;BME280;71194;38.900;-77.124;2023-11-19T12:08:27;100250.98;;;10.01;37.18
49657;BME280;71194;38.900;-77.124;2023-11-19T12:10:57;100256.53;;;10.00;37.32
49657;BME280;71194;38.900;-77.124;2023-11-19T12:13:43;100266.90;;;9.95;37.44
49657;BME280;71194;38.900;-77.124;2023-11-19T12:16:14;100270.15;;;9.99;37.50
49657;BME280;71194;38.900;-77.124;2023-11-19T12:18:42;100269.36;;;10.03;37.55
49657;BME280;71194;38.900;-77.124;2023-11-19T12:21:10;100276.40;;;10.10;37.53
49657;BME280;71194;38.900;-77.124;2023-11-19T12:23:51;100276.24;;;10.17;37.53
49657;BME280;71194;38.900;-77.124;2023-11-19T12:26:35;100281.19;;;10.28;37.55
49657;BME280;71194;38.900;-77.124;2023-11-19T12:29:04;100276.54;;;9.96;37.41
49657;BME280;71194;38.900;-77.124;2023-11-19T12:31:32;100280.48;;;10.30;37.39
49657;BME280;71194;38.900;-77.124;2023-11-19T12:34:00;100283.30;;;10.19;37.44
49657;BME280;71194;38.900;-77.124;2023-11-19T12:36:30;100290.54;;;10.82;37.38
49657;BME280;71194;38.900;-77.124;2023-11-19T12:38:58;100297.97;;;10.47;37.23
49657;BME280;71194;38.900;-77.124;2023-11-19T12:41:27;100301.09;;;10.66;37.03